This is the latest recevied weather packets stored in our database for station/object F4WDE-10. If no packets are shown the sender has not sent any weather packets the latest 10 day(s).
| Time | Temp. | Humidity | Pressure | Rain* | Wind** | Luminosity | Snow |
|---|---|---|---|---|---|---|---|
| 1777740680 | 22.78° C | 28% | 967 hPa | - | - | - | - |
| 1777739779 | 28.89° C | 21% | 967 hPa | - | - | - | - |
| 1777738878 | 30° C | 20% | 967 hPa | - | - | - | - |
| 1777737976 | 32.78° C | 18% | 967 hPa | - | - | - | - |
| 1777737075 | 30.56° C | 20% | 967 hPa | - | - | - | - |
| 1777736174 | 36.67° C | 16% | 967 hPa | - | - | - | - |
| 1777735273 | 26.11° C | 24% | 968 hPa | - | - | - | - |
| 1777734372 | 27.78° C | 23% | 968 hPa | - | - | - | - |
| 1777733471 | 26.67° C | 23% | 968 hPa | - | - | - | - |
| 1777732570 | 26.11° C | 23% | 968 hPa | - | - | - | - |
| 1777731669 | 25° C | 25% | 968 hPa | - | - | - | - |
| 1777730767 | 27.22° C | 23% | 968 hPa | - | - | - | - |
| 1777729866 | 27.22° C | 22% | 969 hPa | - | - | - | - |
| 1777728965 | 27.22° C | 22% | 969 hPa | - | - | - | - |
| 1777728064 | 26.11° C | 25% | 969 hPa | - | - | - | - |
| 1777727163 | 25.56° C | 26% | 969 hPa | - | - | - | - |
| 1777726262 | 25° C | 25% | 969 hPa | - | - | - | - |
| 1777725361 | 25° C | 26% | 969 hPa | - | - | - | - |
| 1777724460 | 25° C | 27% | 969 hPa | - | - | - | - |
| 1777723559 | 25° C | 26% | 969 hPa | - | - | - | - |
| 1777722658 | 24.44° C | 27% | 970 hPa | - | - | - | - |
| 1777721756 | 23.33° C | 28% | 970 hPa | - | - | - | - |
| 1777720855 | 23.33° C | 28% | 970 hPa | - | - | - | - |
| 1777719954 | 22.78° C | 29% | 970 hPa | - | - | - | - |
| 1777719954 | 22.78° C | 29% | 970 hPa | - | - | - | - |
* Rain since midnight (hover to see other rain measurements)
** Current wind speed in m/s (hover to see current wind gust speed)